Sunday, February 7, 2016, 3:09 AM EST
Back to Local

KGKJ, Port Meadville Airport

Location: Meadville, PA, United States Lat: 41.633
Local Time: 3:09 AM EST ( 8:09 GMT) Lon: -80.217
Time Zone: US/Eastern Elev: 1400 ft

Show me the last for .
Show Coded

Time T Td Feel RH Dir Speed Gust Alt SLP Vis Weather Sky Remarks
2016-02-07 02:53 28 15 22 57 200° 6 - 30.13 30.16 10 CLR None
2016-02-07 01:53 29 15 23 55 200° 6 - 30.12 30.16 6 HZ CLR None
2016-02-07 00:53 30 15 24 53 210° 6 - 30.14 30.18 10 CLR 6-hr Min Temp (1am): 30.0°F
6-hr Max Temp (1am): 33.1°F
2016-02-06 23:53 30 16 23 55 200° 7 - 30.14 30.19 10 SCT048 24-hr Min Temp (12am): 28.0°F
24-hr Max Temp (12am): 37.9°F
2016-02-06 22:53 30 16 24 55 220° 6 - 30.16 30.20 10 FEW055 None
2016-02-06 21:53 31 16 27 53 Variable 3 - 30.16 30.20 10 CLR None
2016-02-06 20:53 31 16 27 53 190° 3 - 30.17 30.21 10 CLR None
2016-02-06 19:53 32 15 27 49 210° 5 - 30.17 30.21 10 CLR None
2016-02-06 18:53 33 16 28 48 210° 6 - 30.18 30.22 10 CLR 6-hr Min Temp (7pm): 33.1°F
6-hr Max Temp (7pm): 37.9°F
2016-02-06 17:53 35 17 31 47 210° 5 - 30.17 30.21 10 CLR None
2016-02-06 16:53 37 18 32 45 230° 6 - 30.17 30.21 10 CLR None
2016-02-06 15:53 38 19 33 46 Variable 6 - 30.17 30.21 10 CLR None
2016-02-06 14:53 38 22 31 52 250° 9 - 30.17 30.21 10 CLR None
2016-02-06 13:53 36 21 29 54 260° 9 - 30.19 30.23 10 CLR None
2016-02-06 12:53 34 21 26 58 240° 10 - 30.21 30.25 10 FEW027 6-hr Min Temp (1pm): 28.0°F
6-hr Max Temp (1pm): 35.1°F
2016-02-06 11:53 32 22 24 65 250° 10 - 30.25 30.29 10 FEW024 None
2016-02-06 11:44 32 21 24 63 260° 10 - 30.25 - 10 FEW024 None
2016-02-06 10:53 31 21 23 66 260° 9 - 30.26 30.31 10 BKN021 BKN026 None
2016-02-06 10:34 31 21 23 66 280° 8 - 30.26 - 10 BKN019 None
2016-02-06 09:53 30 21 21 68 280° 10 - 30.26 30.31 10 FEW023 None
2016-02-06 08:53 30 18 25 60 240° 5 - 30.26 30.30 10 BKN042 None
2016-02-06 07:53 29 17 22 60 220° 7 - 30.24 30.29 10 CLR None
2016-02-06 06:53 29 17 21 60 210° 8 - 30.23 30.28 10 FEW050 6-hr Min Temp (7am): 28.0°F
6-hr Max Temp (7am): 30.9°F
2016-02-06 05:53 30 17 21 58 210° 10 - 30.23 30.27 10 OVC055 None
2016-02-06 04:53 31 17 22 55 200° 10 - 30.23 30.27 10 OVC060 None
2016-02-06 03:53 30 17 22 58 200° 9 - 30.22 30.26 10 OVC060 None

Support USWX by starting your Amazon purchase here.